sensor_id;sensor_type;location;lat;lon;timestamp;pressure;altitude;pressure_sealevel;temperature;humidity
18436;BME280;9346;52.006;4.720;2022-08-06T00:02:17;102471.81;;;16.01;100.00
18436;BME280;9346;52.006;4.720;2022-08-06T00:04:45;102473.47;;;15.97;100.00
18436;BME280;9346;52.006;4.720;2022-08-06T00:07:13;102469.28;;;15.94;100.00
18436;BME280;9346;52.006;4.720;2022-08-06T00:09:40;102474.28;;;15.92;100.00
18436;BME280;9346;52.006;4.720;2022-08-06T00:12:07;102478.44;;;15.90;100.00
18436;BME280;9346;52.006;4.720;2022-08-06T00:14:35;102476.78;;;15.89;100.00
18436;BME280;9346;52.006;4.720;2022-08-06T00:17:03;102475.94;;;15.88;100.00
18436;BME280;9346;52.006;4.720;2022-08-06T00:19:30;102480.66;;;15.88;100.00
18436;BME280;9346;52.006;4.720;2022-08-06T00:21:57;102477.31;;;15.86;100.00
18436;BME280;9346;52.006;4.720;2022-08-06T00:24:24;102485.06;;;15.84;100.00
18436;BME280;9346;52.006;4.720;2022-08-06T00:26:52;102487.31;;;15.82;100.00
18436;BME280;9346;52.006;4.720;2022-08-06T00:29:19;102485.63;;;15.81;100.00
18436;BME280;9346;52.006;4.720;2022-08-06T00:31:45;102494.22;;;15.79;100.00
18436;BME280;9346;52.006;4.720;2022-08-06T00:34:14;102497.25;;;15.78;100.00
18436;BME280;9346;52.006;4.720;2022-08-06T00:36:42;102501.16;;;15.77;100.00
18436;BME280;9346;52.006;4.720;2022-08-06T00:39:09;102504.47;;;15.74;100.00
18436;BME280;9346;52.006;4.720;2022-08-06T00:41:36;102513.06;;;15.72;100.00
18436;BME280;9346;52.006;4.720;2022-08-06T00:44:04;102514.44;;;15.70;100.00
18436;BME280;9346;52.006;4.720;2022-08-06T00:46:31;102513.06;;;15.67;100.00
18436;BME280;9346;52.006;4.720;2022-08-06T00:48:58;102511.63;;;15.64;100.00
18436;BME280;9346;52.006;4.720;2022-08-06T00:51:26;102514.41;;;15.64;100.00
18436;BME280;9346;52.006;4.720;2022-08-06T00:53:53;102509.97;;;15.63;100.00
18436;BME280;9346;52.006;4.720;2022-08-06T00:56:20;102505.78;;;15.61;100.00
18436;BME280;9346;52.006;4.720;2022-08-06T00:58:48;102511.63;;;15.59;100.00
18436;BME280;9346;52.006;4.720;2022-08-06T01:01:15;102520.22;;;15.58;100.00
18436;BME280;9346;52.006;4.720;2022-08-06T01:03:42;102516.00;;;15.55;100.00
18436;BME280;9346;52.006;4.720;2022-08-06T01:06:10;102509.06;;;15.53;100.00
18436;BME280;9346;52.006;4.720;2022-08-06T01:08:38;102517.91;;;15.50;100.00
18436;BME280;9346;52.006;4.720;2022-08-06T01:11:05;102516.84;;;15.51;100.00
18436;BME280;9346;52.006;4.720;2022-08-06T01:13:32;102520.97;;;15.48;100.00
18436;BME280;9346;52.006;4.720;2022-08-06T01:16:07;102519.03;;;15.49;100.00
18436;BME280;9346;52.006;4.720;2022-08-06T01:18:43;102519.81;;;15.44;100.00
18436;BME280;9346;52.006;4.720;2022-08-06T01:21:28;102528.47;;;15.48;100.00
18436;BME280;9346;52.006;4.720;2022-08-06T01:24:16;102527.63;;;15.47;100.00
18436;BME280;9346;52.006;4.720;2022-08-06T01:26:50;102526.78;;;15.47;100.00
18436;BME280;9346;52.006;4.720;2022-08-06T01:29:25;102534.03;;;15.48;100.00
18436;BME280;9346;52.006;4.720;2022-08-06T01:31:57;102529.56;;;15.47;100.00
18436;BME280;9346;52.006;4.720;2022-08-06T01:34:30;102524.00;;;15.47;100.00
18436;BME280;9346;52.006;4.720;2022-08-06T01:37:07;102525.69;;;15.48;100.00
18436;BME280;9346;52.006;4.720;2022-08-06T01:39:37;102518.44;;;15.47;100.00
18436;BME280;9346;52.006;4.720;2022-08-06T01:42:06;102523.75;;;15.48;100.00
18436;BME280;9346;52.006;4.720;2022-08-06T01:44:39;102528.47;;;15.48;100.00
18436;BME280;9346;52.006;4.720;2022-08-06T01:47:09;102526.78;;;15.47;100.00
18436;BME280;9346;52.006;4.720;2022-08-06T01:49:39;102537.88;;;15.47;100.00
18436;BME280;9346;52.006;4.720;2022-08-06T01:52:10;102529.56;;;15.47;100.00
18436;BME280;9346;52.006;4.720;2022-08-06T01:54:41;102534.03;;;15.48;100.00
18436;BME280;9346;52.006;4.720;2022-08-06T01:57:11;102542.34;;;15.48;100.00
18436;BME280;9346;52.006;4.720;2022-08-06T01:59:45;102538.72;;;15.47;100.00
18436;BME280;9346;52.006;4.720;2022-08-06T02:02:17;102539.00;;;15.46;100.00
18436;BME280;9346;52.006;4.720;2022-08-06T02:04:46;102535.63;;;15.44;100.00
18436;BME280;9346;52.006;4.720;2022-08-06T02:07:15;102530.63;;;15.41;100.00
18436;BME280;9346;52.006;4.720;2022-08-06T02:09:44;102531.72;;;15.40;100.00
18436;BME280;9346;52.006;4.720;2022-08-06T02:12:14;102536.13;;;15.36;100.00
18436;BME280;9346;52.006;4.720;2022-08-06T02:14:49;102530.56;;;15.36;100.00
18436;BME280;9346;52.006;4.720;2022-08-06T02:17:19;102533.28;;;15.31;100.00
18436;BME280;9346;52.006;4.720;2022-08-06T02:19:50;102537.44;;;15.28;100.00
18436;BME280;9346;52.006;4.720;2022-08-06T02:22:18;102526.59;;;15.27;100.00
18436;BME280;9346;52.006;4.720;2022-08-06T02:24:46;102532.16;;;15.27;100.00
18436;BME280;9346;52.006;4.720;2022-08-06T02:27:14;102528.78;;;15.25;100.00
18436;BME280;9346;52.006;4.720;2022-08-06T02:29:47;102531.56;;;15.25;100.00
18436;BME280;9346;52.006;4.720;2022-08-06T02:32:14;102528.22;;;15.23;100.00
18436;BME280;9346;52.006;4.720;2022-08-06T02:34:42;102532.13;;;15.22;100.00
18436;BME280;9346;52.006;4.720;2022-08-06T02:37:12;102532.38;;;15.20;100.00
18436;BME280;9346;52.006;4.720;2022-08-06T02:39:41;102535.97;;;15.21;100.00
18436;BME280;9346;52.006;4.720;2022-08-06T02:42:17;102537.66;;;15.22;100.00
18436;BME280;9346;52.006;4.720;2022-08-06T02:44:53;102547.06;;;15.21;100.00
18436;BME280;9346;52.006;4.720;2022-08-06T02:47:27;102545.69;;;15.18;100.00
18436;BME280;9346;52.006;4.720;2022-08-06T02:49:59;102531.47;;;15.15;100.00
18436;BME280;9346;52.006;4.720;2022-08-06T02:52:30;102538.13;;;15.14;100.00
18436;BME280;9346;52.006;4.720;2022-08-06T02:55:06;102548.66;;;15.12;100.00
18436;BME280;9346;52.006;4.720;2022-08-06T02:57:38;102547.00;;;15.11;100.00
18436;BME280;9346;52.006;4.720;2022-08-06T03:00:09;102546.13;;;15.10;100.00
18436;BME280;9346;52.006;4.720;2022-08-06T03:02:38;102544.75;;;15.08;100.00
18436;BME280;9346;52.006;4.720;2022-08-06T03:05:08;102555.03;;;15.07;100.00
18436;BME280;9346;52.006;4.720;2022-08-06T03:07:39;102548.63;;;15.07;100.00
18436;BME280;9346;52.006;4.720;2022-08-06T03:10:07;102556.09;;;15.06;100.00
18436;BME280;9346;52.006;4.720;2022-08-06T03:12:35;102554.69;;;15.04;100.00
18436;BME280;9346;52.006;4.720;2022-08-06T03:15:06;102554.09;;;15.02;100.00
18436;BME280;9346;52.006;4.720;2022-08-06T03:17:37;102551.03;;;14.98;100.00
18436;BME280;9346;52.006;4.720;2022-08-06T03:20:06;102556.25;;;14.95;100.00
18436;BME280;9346;52.006;4.720;2022-08-06T03:22:35;102554.88;;;14.92;100.00
18436;BME280;9346;52.006;4.720;2022-08-06T03:25:04;102563.44;;;14.91;100.00
18436;BME280;9346;52.006;4.720;2022-08-06T03:27:33;102557.31;;;14.89;100.00
18436;BME280;9346;52.006;4.720;2022-08-06T03:30:01;102560.09;;;14.89;100.00
18436;BME280;9346;52.006;4.720;2022-08-06T03:32:31;102560.09;;;14.89;100.00
18436;BME280;9346;52.006;4.720;2022-08-06T03:34:58;102564.81;;;14.88;100.00
18436;BME280;9346;52.006;4.720;2022-08-06T03:37:27;102568.94;;;14.86;100.00
18436;BME280;9346;52.006;4.720;2022-08-06T03:39:56;102574.28;;;14.92;100.00
18436;BME280;9346;52.006;4.720;2022-08-06T03:42:26;102571.50;;;14.92;100.00
18436;BME280;9346;52.006;4.720;2022-08-06T03:44:53;102573.97;;;14.89;100.00
18436;BME280;9346;52.006;4.720;2022-08-06T03:47:22;102572.56;;;14.86;100.00
18436;BME280;9346;52.006;4.720;2022-08-06T03:49:55;102567.25;;;14.85;100.00
18436;BME280;9346;52.006;4.720;2022-08-06T03:52:26;102572.22;;;14.83;100.00
18436;BME280;9346;52.006;4.720;2022-08-06T03:54:56;102574.97;;;14.78;100.00
18436;BME280;9346;52.006;4.720;2022-08-06T03:57:26;102575.47;;;14.75;100.00
18436;BME280;9346;52.006;4.720;2022-08-06T03:59:55;102579.34;;;14.74;100.00
18436;BME280;9346;52.006;4.720;2022-08-06T04:02:29;102580.44;;;14.73;100.00
18436;BME280;9346;52.006;4.720;2022-08-06T04:04:59;102586.25;;;14.71;100.00
18436;BME280;9346;52.006;4.720;2022-08-06T04:07:26;102587.94;;;14.72;100.00
18436;BME280;9346;52.006;4.720;2022-08-06T04:09:55;102587.34;;;14.70;100.00
18436;BME280;9346;52.006;4.720;2022-08-06T04:12:22;102586.25;;;14.71;100.00
18436;BME280;9346;52.006;4.720;2022-08-06T04:14:50;102584.56;;;14.70;100.00
18436;BME280;9346;52.006;4.720;2022-08-06T04:17:19;102597.34;;;14.71;100.00
18436;BME280;9346;52.006;4.720;2022-08-06T04:19:48;102593.75;;;14.71;100.00
18436;BME280;9346;52.006;4.720;2022-08-06T04:22:16;102592.91;;;14.70;100.00
18436;BME280;9346;52.006;4.720;2022-08-06T04:24:43;102585.44;;;14.71;100.00
18436;BME280;9346;52.006;4.720;2022-08-06T04:27:13;102593.75;;;14.71;100.00
18436;BME280;9346;52.006;4.720;2022-08-06T04:29:42;102590.97;;;14.71;100.00
18436;BME280;9346;52.006;4.720;2022-08-06T04:32:14;102594.56;;;14.71;100.00
18436;BME280;9346;52.006;4.720;2022-08-06T04:34:43;102590.97;;;14.71;100.00
18436;BME280;9346;52.006;4.720;2022-08-06T04:37:10;102598.19;;;14.72;100.00
18436;BME280;9346;52.006;4.720;2022-08-06T04:39:39;102592.06;;;14.70;100.00
18436;BME280;9346;52.006;4.720;2022-08-06T04:42:07;102600.38;;;14.70;100.00
18436;BME280;9346;52.006;4.720;2022-08-06T04:44:35;102593.75;;;14.71;100.00
18436;BME280;9346;52.006;4.720;2022-08-06T04:47:02;102602.06;;;14.71;100.00
18436;BME280;9346;52.006;4.720;2022-08-06T04:49:30;102602.88;;;14.71;100.00
18436;BME280;9346;52.006;4.720;2022-08-06T04:51:57;102607.63;;;14.71;100.00
18436;BME280;9346;52.006;4.720;2022-08-06T04:54:24;102608.44;;;14.71;100.00
18436;BME280;9346;52.006;4.720;2022-08-06T04:56:53;102608.19;;;14.73;100.00
18436;BME280;9346;52.006;4.720;2022-08-06T04:59:20;102613.72;;;14.73;100.00
18436;BME280;9346;52.006;4.720;2022-08-06T05:01:47;102615.41;;;14.74;100.00
18436;BME280;9346;52.006;4.720;2022-08-06T05:04:14;102617.34;;;14.73;100.00
18436;BME280;9346;52.006;4.720;2022-08-06T05:06:46;102625.41;;;14.75;100.00
18436;BME280;9346;52.006;4.720;2022-08-06T05:09:18;102617.94;;;14.75;100.00
18436;BME280;9346;52.006;4.720;2022-08-06T05:11:50;102616.56;;;14.78;100.00
18436;BME280;9346;52.006;4.720;2022-08-06T05:14:24;102622.16;;;14.83;100.00
18436;BME280;9346;52.006;4.720;2022-08-06T05:16:54;102619.97;;;14.85;100.00
18436;BME280;9346;52.006;4.720;2022-08-06T05:19:26;102625.28;;;14.86;100.00
18436;BME280;9346;52.006;4.720;2022-08-06T05:21:57;102631.41;;;14.88;100.00
18436;BME280;9346;52.006;4.720;2022-08-06T05:24:25;102642.53;;;14.93;100.00
18436;BME280;9346;52.006;4.720;2022-08-06T05:26:53;102638.94;;;14.93;100.00
18436;BME280;9346;52.006;4.720;2022-08-06T05:29:23;102647.13;;;14.83;100.00
18436;BME280;9346;52.006;4.720;2022-08-06T05:31:57;102652.03;;;14.76;100.00
18436;BME280;9346;52.006;4.720;2022-08-06T05:34:25;102656.50;;;14.77;100.00
18436;BME280;9346;52.006;4.720;2022-08-06T05:36:52;102660.69;;;14.79;100.00
18436;BME280;9346;52.006;4.720;2022-08-06T05:39:19;102673.03;;;14.88;100.00
18436;BME280;9346;52.006;4.720;2022-08-06T05:41:48;102673.97;;;14.99;100.00
18436;BME280;9346;52.006;4.720;2022-08-06T05:44:15;102670.75;;;15.07;100.00
18436;BME280;9346;52.006;4.720;2022-08-06T05:46:50;102683.63;;;15.18;100.00
18436;BME280;9346;52.006;4.720;2022-08-06T05:49:22;102684.00;;;15.26;100.00
18436;BME280;9346;52.006;4.720;2022-08-06T05:51:56;102689.44;;;15.38;100.00
18436;BME280;9346;52.006;4.720;2022-08-06T05:54:30;102685.06;;;15.47;100.00
18436;BME280;9346;52.006;4.720;2022-08-06T05:57:04;102689.91;;;15.56;100.00
18436;BME280;9346;52.006;4.720;2022-08-06T05:59:35;102685.81;;;15.64;100.00
18436;BME280;9346;52.006;4.720;2022-08-06T06:02:06;102692.81;;;15.72;100.00
18436;BME280;9346;52.006;4.720;2022-08-06T06:04:36;102689.31;;;15.81;100.00
18436;BME280;9346;52.006;4.720;2022-08-06T06:07:03;102696.06;;;15.90;100.00
18436;BME280;9346;52.006;4.720;2022-08-06T06:09:31;102696.69;;;16.02;100.00
18436;BME280;9346;52.006;4.720;2022-08-06T06:11:58;102687.34;;;16.13;100.00
18436;BME280;9346;52.006;4.720;2022-08-06T06:14:34;102691.31;;;16.27;100.00
18436;BME280;9346;52.006;4.720;2022-08-06T06:17:19;102697.84;;;16.43;100.00
18436;BME280;9346;52.006;4.720;2022-08-06T06:19:56;102691.00;;;16.60;100.00
18436;BME280;9346;52.006;4.720;2022-08-06T06:22:30;102692.22;;;16.79;100.00
18436;BME280;9346;52.006;4.720;2022-08-06T06:25:04;102690.34;;;16.95;100.00
18436;BME280;9346;52.006;4.720;2022-08-06T06:27:41;102693.16;;;17.10;100.00
18436;BME280;9346;52.006;4.720;2022-08-06T06:30:15;102684.03;;;17.24;100.00
18436;BME280;9346;52.006;4.720;2022-08-06T06:32:50;102694.09;;;17.40;100.00
18436;BME280;9346;52.006;4.720;2022-08-06T06:35:26;102683.56;;;17.52;100.00
18436;BME280;9346;52.006;4.720;2022-08-06T06:38:00;102695.84;;;17.66;100.00
18436;BME280;9346;52.006;4.720;2022-08-06T06:40:43;102696.97;;;17.81;100.00
18436;BME280;9346;52.006;4.720;2022-08-06T06:43:18;102690.84;;;17.89;100.00
18436;BME280;9346;52.006;4.720;2022-08-06T06:45:53;102695.84;;;18.02;100.00
18436;BME280;9346;52.006;4.720;2022-08-06T06:48:38;102692.50;;;18.15;100.00
18436;BME280;9346;52.006;4.720;2022-08-06T06:51:10;102694.16;;;18.31;100.00
18436;BME280;9346;52.006;4.720;2022-08-06T06:53:44;102693.06;;;18.42;100.00
18436;BME280;9346;52.006;4.720;2022-08-06T06:56:16;102694.66;;;18.63;100.00
18436;BME280;9346;52.006;4.720;2022-08-06T06:58:46;102698.81;;;18.80;100.00
18436;BME280;9346;52.006;4.720;2022-08-06T07:01:16;102685.31;;;18.97;100.00
18436;BME280;9346;52.006;4.720;2022-08-06T07:03:47;102689.19;;;19.06;100.00
18436;BME280;9346;52.006;4.720;2022-08-06T07:06:16;102688.84;;;19.18;100.00
18436;BME280;9346;52.006;4.720;2022-08-06T07:08:46;102691.03;;;19.31;100.00
18436;BME280;9346;52.006;4.720;2022-08-06T07:11:19;102703.00;;;19.36;100.00
18436;BME280;9346;52.006;4.720;2022-08-06T07:13:49;102704.41;;;19.39;100.00
18436;BME280;9346;52.006;4.720;2022-08-06T07:16:18;102706.94;;;19.35;100.00
18436;BME280;9346;52.006;4.720;2022-08-06T07:18:49;102705.56;;;19.33;100.00
18436;BME280;9346;52.006;4.720;2022-08-06T07:21:19;102709.50;;;19.32;100.00
18436;BME280;9346;52.006;4.720;2022-08-06T07:23:49;102712.81;;;19.39;100.00
18436;BME280;9346;52.006;4.720;2022-08-06T07:26:17;102713.03;;;19.42;100.00
18436;BME280;9346;52.006;4.720;2022-08-06T07:28:46;102712.19;;;19.47;100.00
18436;BME280;9346;52.006;4.720;2022-08-06T07:31:14;102714.69;;;19.53;100.00
18436;BME280;9346;52.006;4.720;2022-08-06T07:33:44;102714.38;;;19.55;100.00
18436;BME280;9346;52.006;4.720;2022-08-06T07:36:15;102720.00;;;19.50;100.00
18436;BME280;9346;52.006;4.720;2022-08-06T07:38:44;102716.41;;;19.39;100.00
18436;BME280;9346;52.006;4.720;2022-08-06T07:41:13;102711.44;;;19.31;100.00
18436;BME280;9346;52.006;4.720;2022-08-06T07:43:43;102714.50;;;19.35;100.00
18436;BME280;9346;52.006;4.720;2022-08-06T07:46:14;102709.50;;;19.32;100.00
18436;BME280;9346;52.006;4.720;2022-08-06T07:48:46;102721.50;;;19.32;100.00
18436;BME280;9346;52.006;4.720;2022-08-06T07:51:16;102721.50;;;19.32;100.00
18436;BME280;9346;52.006;4.720;2022-08-06T07:53:44;102724.03;;;19.29;100.00
18436;BME280;9346;52.006;4.720;2022-08-06T07:56:12;102722.94;;;19.20;100.00
18436;BME280;9346;52.006;4.720;2022-08-06T07:58:40;102722.13;;;19.14;100.00
18436;BME280;9346;52.006;4.720;2022-08-06T08:01:08;102723.50;;;19.17;100.00
18436;BME280;9346;52.006;4.720;2022-08-06T08:03:36;102723.19;;;19.23;100.00
18436;BME280;9346;52.006;4.720;2022-08-06T08:06:23;102731.56;;;19.28;100.00
18436;BME280;9346;52.006;4.720;2022-08-06T08:08:54;102732.38;;;19.34;100.00
18436;BME280;9346;52.006;4.720;2022-08-06T08:11:22;102733.22;;;19.34;100.00
18436;BME280;9346;52.006;4.720;2022-08-06T08:13:52;102740.72;;;19.44;100.00
18436;BME280;9346;52.006;4.720;2022-08-06T08:16:20;102742.41;;;19.45;100.00
18436;BME280;9346;52.006;4.720;2022-08-06T08:18:47;102738.19;;;19.47;100.00
18436;BME280;9346;52.006;4.720;2022-08-06T08:21:15;102740.66;;;19.54;100.00
18436;BME280;9346;52.006;4.720;2022-08-06T08:23:45;102735.59;;;19.61;100.00
18436;BME280;9346;52.006;4.720;2022-08-06T08:26:13;102744.78;;;19.66;100.00
18436;BME280;9346;52.006;4.720;2022-08-06T08:28:40;102742.22;;;19.70;100.00
18436;BME280;9346;52.006;4.720;2022-08-06T08:31:07;102745.00;;;19.75;100.00
18436;BME280;9346;52.006;4.720;2022-08-06T08:33:34;102736.25;;;19.81;100.00
18436;BME280;9346;52.006;4.720;2022-08-06T08:36:01;102740.47;;;19.84;100.00
18436;BME280;9346;52.006;4.720;2022-08-06T08:38:30;102740.16;;;19.85;100.00
18436;BME280;9346;52.006;4.720;2022-08-06T08:41:01;102735.94;;;19.88;100.00
18436;BME280;9346;52.006;4.720;2022-08-06T08:43:34;102743.75;;;19.91;100.00
18436;BME280;9346;52.006;4.720;2022-08-06T08:46:02;102737.88;;;19.92;100.00
18436;BME280;9346;52.006;4.720;2022-08-06T08:48:30;102730.56;;;19.97;100.00
18436;BME280;9346;52.006;4.720;2022-08-06T08:50:58;102737.59;;;19.94;100.00
18436;BME280;9346;52.006;4.720;2022-08-06T08:53:29;102739.75;;;20.02;100.00
18436;BME280;9346;52.006;4.720;2022-08-06T08:56:02;102739.75;;;20.02;100.00
18436;BME280;9346;52.006;4.720;2022-08-06T08:58:29;102744.25;;;19.98;100.00
18436;BME280;9346;52.006;4.720;2022-08-06T09:01:02;102736.22;;;19.92;100.00
18436;BME280;9346;52.006;4.720;2022-08-06T09:03:29;102744.00;;;19.94;100.00
18436;BME280;9346;52.006;4.720;2022-08-06T09:05:56;102744.56;;;19.97;100.00
18436;BME280;9346;52.006;4.720;2022-08-06T09:08:23;102741.75;;;19.97;100.00
18436;BME280;9346;52.006;4.720;2022-08-06T09:10:50;102751.50;;;20.04;100.00
18436;BME280;9346;52.006;4.720;2022-08-06T09:13:19;102747.84;;;20.04;100.00
18436;BME280;9346;52.006;4.720;2022-08-06T09:15:46;102735.25;;;20.06;100.00
18436;BME280;9346;52.006;4.720;2022-08-06T09:18:12;102741.69;;;20.12;100.00
18436;BME280;9346;52.006;4.720;2022-08-06T09:20:39;102751.63;;;20.23;100.00
18436;BME280;9346;52.006;4.720;2022-08-06T09:23:07;102753.53;;;20.32;100.00
18436;BME280;9346;52.006;4.720;2022-08-06T09:25:35;102748.41;;;20.39;100.00
18436;BME280;9346;52.006;4.720;2022-08-06T09:28:03;102751.22;;;20.39;100.00
18436;BME280;9346;52.006;4.720;2022-08-06T09:30:32;102752.94;;;20.35;100.00
18436;BME280;9346;52.006;4.720;2022-08-06T09:32:58;102757.91;;;20.38;100.00
18436;BME280;9346;52.006;4.720;2022-08-06T09:35:28;102752.66;;;20.37;100.00
18436;BME280;9346;52.006;4.720;2022-08-06T09:38:00;102750.66;;;20.37;100.00
18436;BME280;9346;52.006;4.720;2022-08-06T09:40:27;102755.38;;;20.42;100.00
18436;BME280;9346;52.006;4.720;2022-08-06T09:42:54;102755.66;;;20.45;100.00
18436;BME280;9346;52.006;4.720;2022-08-06T09:45:22;102748.94;;;20.41;100.00
18436;BME280;9346;52.006;4.720;2022-08-06T09:48:01;102747.38;;;20.30;100.00
18436;BME280;9346;52.006;4.720;2022-08-06T09:50:40;102742.84;;;20.34;100.00
18436;BME280;9346;52.006;4.720;2022-08-06T09:53:07;102749.50;;;20.43;100.00
18436;BME280;9346;52.006;4.720;2022-08-06T09:55:34;102751.06;;;20.54;100.00
18436;BME280;9346;52.006;4.720;2022-08-06T09:58:01;102748.81;;;20.56;100.00
18436;BME280;9346;52.006;4.720;2022-08-06T10:00:30;102749.34;;;20.58;100.00
18436;BME280;9346;52.006;4.720;2022-08-06T10:03:01;102738.66;;;20.60;100.00
18436;BME280;9346;52.006;4.720;2022-08-06T10:05:28;102738.03;;;20.68;100.00
18436;BME280;9346;52.006;4.720;2022-08-06T10:08:06;102747.50;;;20.72;100.00
18436;BME280;9346;52.006;4.720;2022-08-06T10:10:44;102753.97;;;20.73;100.00
18436;BME280;9346;52.006;4.720;2022-08-06T10:13:17;102747.34;;;20.87;100.00
18436;BME280;9346;52.006;4.720;2022-08-06T10:15:47;102746.41;;;20.97;100.00
18436;BME280;9346;52.006;4.720;2022-08-06T10:18:38;102753.34;;;21.04;100.00
18436;BME280;9346;52.006;4.720;2022-08-06T10:21:07;102755.41;;;21.17;99.07
18436;BME280;9346;52.006;4.720;2022-08-06T10:23:36;102758.47;;;21.21;100.00
18436;BME280;9346;52.006;4.720;2022-08-06T10:26:07;102759.56;;;21.20;100.00
18436;BME280;9346;52.006;4.720;2022-08-06T10:28:37;102761.63;;;21.14;97.80
18436;BME280;9346;52.006;4.720;2022-08-06T10:31:06;102756.97;;;21.05;97.03
18436;BME280;9346;52.006;4.720;2022-08-06T10:33:41;102754.78;;;21.02;95.78
18436;BME280;9346;52.006;4.720;2022-08-06T10:36:13;102749.22;;;20.97;94.51
18436;BME280;9346;52.006;4.720;2022-08-06T10:38:43;102748.63;;;21.00;95.18
18436;BME280;9346;52.006;4.720;2022-08-06T10:41:13;102747.13;;;21.07;95.35
18436;BME280;9346;52.006;4.720;2022-08-06T10:43:40;102748.91;;;21.22;95.78
18436;BME280;9346;52.006;4.720;2022-08-06T10:46:09;102755.81;;;21.29;93.68
18436;BME280;9346;52.006;4.720;2022-08-06T10:48:41;102752.00;;;21.20;94.82
18436;BME280;9346;52.006;4.720;2022-08-06T10:51:09;102753.16;;;21.19;95.80
18436;BME280;9346;52.006;4.720;2022-08-06T10:53:37;102753.16;;;21.19;96.68
18436;BME280;9346;52.006;4.720;2022-08-06T10:56:07;102757.38;;;21.17;96.85
18436;BME280;9346;52.006;4.720;2022-08-06T10:58:35;102758.25;;;21.12;96.17
18436;BME280;9346;52.006;4.720;2022-08-06T11:01:05;102750.47;;;21.09;95.91
18436;BME280;9346;52.006;4.720;2022-08-06T11:03:46;102756.38;;;21.08;93.96
18436;BME280;9346;52.006;4.720;2022-08-06T11:09:38;102741.34;;;21.22;94.36
18436;BME280;9346;52.006;4.720;2022-08-06T11:12:17;102742.91;;;21.28;92.87
18436;BME280;9346;52.006;4.720;2022-08-06T11:14:49;102738.56;;;21.41;92.44
18436;BME280;9346;52.006;4.720;2022-08-06T11:17:17;102739.38;;;21.41;92.46
18436;BME280;9346;52.006;4.720;2022-08-06T11:19:46;102744.81;;;21.33;92.62
18436;BME280;9346;52.006;4.720;2022-08-06T11:22:32;102741.41;;;21.17;92.69
18436;BME280;9346;52.006;4.720;2022-08-06T11:25:00;102743.34;;;21.17;95.20
18436;BME280;9346;52.006;4.720;2022-08-06T11:27:47;102734.72;;;21.13;92.97
18436;BME280;9346;52.006;4.720;2022-08-06T11:30:14;102733.13;;;21.07;90.52
18436;BME280;9346;52.006;4.720;2022-08-06T11:32:46;102733.69;;;21.09;89.62
18436;BME280;9346;52.006;4.720;2022-08-06T11:39:01;102725.44;;;21.18;85.06
18436;BME280;9346;52.006;4.720;2022-08-06T11:41:29;102727.25;;;21.27;85.58
18436;BME280;9346;52.006;4.720;2022-08-06T11:44:05;102732.50;;;21.34;85.51
18436;BME280;9346;52.006;4.720;2022-08-06T11:46:33;102723.19;;;21.38;84.90
18436;BME280;9346;52.006;4.720;2022-08-06T11:49:18;102727.56;;;21.44;86.16
18436;BME280;9346;52.006;4.720;2022-08-06T11:51:48;102721.34;;;21.47;85.40
18436;BME280;9346;52.006;4.720;2022-08-06T11:54:19;102722.44;;;21.51;85.75
18436;BME280;9346;52.006;4.720;2022-08-06T11:57:17;102718.63;;;21.61;85.89
18436;BME280;9346;52.006;4.720;2022-08-06T11:59:45;102719.38;;;21.66;85.52
18436;BME280;9346;52.006;4.720;2022-08-06T12:02:16;102722.78;;;21.63;83.77
18436;BME280;9346;52.006;4.720;2022-08-06T12:04:44;102723.09;;;21.62;84.31
18436;BME280;9346;52.006;4.720;2022-08-06T12:07:17;102713.47;;;21.68;84.17
18436;BME280;9346;52.006;4.720;2022-08-06T12:09:46;102718.16;;;21.77;85.56
18436;BME280;9346;52.006;4.720;2022-08-06T12:12:32;102718.97;;;21.97;86.86
18436;BME280;9346;52.006;4.720;2022-08-06T12:15:00;102725.22;;;22.07;82.88
18436;BME280;9346;52.006;4.720;2022-08-06T12:17:28;102727.72;;;22.09;81.77
18436;BME280;9346;52.006;4.720;2022-08-06T12:19:58;102717.63;;;22.08;82.17
18436;BME280;9346;52.006;4.720;2022-08-06T12:22:26;102718.38;;;22.13;82.65
18436;BME280;9346;52.006;4.720;2022-08-06T12:24:57;102722.03;;;22.14;83.33
18436;BME280;9346;52.006;4.720;2022-08-06T12:27:30;102714.22;;;22.11;82.82
18436;BME280;9346;52.006;4.720;2022-08-06T12:30:00;102719.22;;;22.14;83.90
18436;BME280;9346;52.006;4.720;2022-08-06T12:32:29;102712.69;;;22.18;81.46
18436;BME280;9346;52.006;4.720;2022-08-06T12:34:59;102711.97;;;22.26;83.63
18436;BME280;9346;52.006;4.720;2022-08-06T12:37:33;102710.53;;;22.29;83.16
18436;BME280;9346;52.006;4.720;2022-08-06T12:40:06;102709.38;;;22.30;83.02
18436;BME280;9346;52.006;4.720;2022-08-06T12:43:07;102715.25;;;22.15;79.71
18436;BME280;9346;52.006;4.720;2022-08-06T12:45:35;102716.06;;;22.02;80.71
18436;BME280;9346;52.006;4.720;2022-08-06T12:48:04;102713.66;;;21.95;80.22
18436;BME280;9346;52.006;4.720;2022-08-06T12:50:33;102705.97;;;22.01;80.29
18436;BME280;9346;52.006;4.720;2022-08-06T12:53:03;102711.09;;;22.12;79.86
18436;BME280;9346;52.006;4.720;2022-08-06T12:55:33;102713.34;;;22.29;80.38
18436;BME280;9346;52.006;4.720;2022-08-06T12:58:03;102706.59;;;22.30;78.47
18436;BME280;9346;52.006;4.720;2022-08-06T13:00:30;102697.25;;;22.34;78.23
18436;BME280;9346;52.006;4.720;2022-08-06T13:02:57;102704.63;;;22.44;76.54
18436;BME280;9346;52.006;4.720;2022-08-06T13:05:25;102702.97;;;22.43;76.01
18436;BME280;9346;52.006;4.720;2022-08-06T13:07:53;102702.59;;;22.49;76.26
18436;BME280;9346;52.006;4.720;2022-08-06T13:10:21;102703.53;;;22.58;76.75
18436;BME280;9346;52.006;4.720;2022-08-06T13:12:54;102704.19;;;22.69;77.62
18436;BME280;9346;52.006;4.720;2022-08-06T13:15:24;102705.44;;;22.76;75.81
18436;BME280;9346;52.006;4.720;2022-08-06T13:18:02;102706.06;;;22.73;73.61